Time;durP1;ratioP1;P1;durP2;ratioP2;P2;SDS_P1;SDS_P2;PMS_P1;PMS_P2;Temp;Humidity;BMP_temperature;BMP_pressure;BME280_temperature;BME280_humidity;BME280_pressure;Samples;Min_cycle;Max_cycle;Signal;HPM_P1;HPM_P2
2022/05/07 00:01:44;;;;;;;;;;;13.70;93.20;;;;;;5053410;28;19950;-89
2022/05/07 00:04:09;;;;;;;;;;;13.70;93.10;;;;;;5053318;28;19960;-88
2022/05/07 00:06:35;;;;;;;;;;;13.70;93.10;;;;;;5053308;28;19954;-88
2022/05/07 00:09:00;;;;;;;;;;;13.60;93.20;;;;;;5053215;28;19960;-88
2022/05/07 00:11:26;;;;;;;;;;;13.70;93.50;;;;;;5053251;28;20327;-88
2022/05/07 00:13:52;;;;;;;;;;;13.70;93.50;;;;;;5053010;28;19994;-88
2022/05/07 00:19:01;;;;;;;;;;;13.70;93.40;;;;;;5053202;28;19972;-89
2022/05/07 00:21:27;;;;;;;;;;;13.70;93.30;;;;;;5053206;28;19951;-88
2022/05/07 00:23:53;;;;;;;;;;;13.80;93.20;;;;;;5053417;28;19952;-88
2022/05/07 00:26:18;;;;;;;;;;;13.80;93.20;;;;;;5052647;28;19953;-89
2022/05/07 00:28:47;;;;;;;;;;;13.80;93.10;;;;;;5053091;28;19948;-89
2022/05/07 00:31:12;;;;;;;;;;;13.80;93.00;;;;;;5052986;28;19951;-88
2022/05/07 00:33:38;;;;;;;;;;;13.80;92.90;;;;;;5052935;28;19978;-88
2022/05/07 00:36:04;;;;;;;;;;;13.80;92.80;;;;;;5052960;28;20448;-88
2022/05/07 00:38:29;;;;;;;;;;;13.80;92.80;;;;;;5052808;28;20020;-89
2022/05/07 00:40:55;;;;;;;;;;;13.80;92.80;;;;;;5034995;28;19982;-89
2022/05/07 00:43:21;;;;;;;;;;;13.80;92.80;;;;;;5052632;28;19974;-89
2022/05/07 00:45:46;;;;;;;;;;;13.90;92.70;;;;;;5052921;28;19958;-89
2022/05/07 00:48:14;;;;;;;;;;;13.80;92.60;;;;;;5052871;28;20021;-88
2022/05/07 00:53:24;;;;;;;;;;;13.80;92.50;;;;;;5052937;28;20011;-88
2022/05/07 00:55:51;;;;;;;;;;;13.80;92.50;;;;;;5052812;28;19963;-89
2022/05/07 00:58:17;;;;;;;;;;;13.70;92.70;;;;;;5052775;28;19969;-89
2022/05/07 01:00:43;;;;;;;;;;;13.80;92.70;;;;;;5052784;28;20056;-89
2022/05/07 01:03:09;;;;;;;;;;;13.80;92.80;;;;;;5052760;28;20003;-89
2022/05/07 01:05:35;;;;;;;;;;;13.70;92.80;;;;;;5052281;28;20002;-89
2022/05/07 01:08:00;;;;;;;;;;;13.80;92.90;;;;;;5052697;28;19957;-88
2022/05/07 01:10:27;;;;;;;;;;;13.80;93.00;;;;;;5052693;28;19975;-89
2022/05/07 01:12:54;;;;;;;;;;;13.80;92.90;;;;;;5052705;28;20409;-89
2022/05/07 01:15:19;;;;;;;;;;;13.80;92.80;;;;;;5052695;28;19953;-89
2022/05/07 01:17:45;;;;;;;;;;;13.80;92.70;;;;;;5052286;28;20000;-88
2022/05/07 01:20:12;;;;;;;;;;;13.80;92.70;;;;;;5052618;28;19966;-88
2022/05/07 01:22:38;;;;;;;;;;;13.80;92.70;;;;;;5052599;28;19955;-89
2022/05/07 01:25:04;;;;;;;;;;;13.80;92.80;;;;;;5052532;28;19951;-88
2022/05/07 01:27:30;;;;;;;;;;;13.80;92.80;;;;;;5052586;28;19959;-88
2022/05/07 01:29:56;;;;;;;;;;;13.80;92.80;;;;;;5052734;28;19965;-88
2022/05/07 01:32:22;;;;;;;;;;;13.80;92.90;;;;;;5052404;28;20019;-89
2022/05/07 01:34:47;;;;;;;;;;;13.90;92.90;;;;;;5034405;28;20450;-88
2022/05/07 01:37:13;;;;;;;;;;;13.80;92.90;;;;;;5053130;28;19953;-89
2022/05/07 01:39:38;;;;;;;;;;;13.80;92.90;;;;;;5056007;28;19982;-89
2022/05/07 01:42:04;;;;;;;;;;;13.80;92.90;;;;;;5055474;28;20387;-89
2022/05/07 01:44:30;;;;;;;;;;;13.80;92.90;;;;;;5056065;28;20414;-89
2022/05/07 01:49:39;;;;;;;;;;;13.80;93.00;;;;;;5056193;28;20336;-89
2022/05/07 01:52:05;;;;;;;;;;;13.80;93.20;;;;;;5055820;28;19958;-88
2022/05/07 01:54:31;;;;;;;;;;;13.80;93.20;;;;;;5055727;28;19959;-89
2022/05/07 01:56:56;;;;;;;;;;;13.80;93.30;;;;;;5037827;28;19976;-89
2022/05/07 01:59:22;;;;;;;;;;;13.80;93.30;;;;;;5055619;28;19974;-88
2022/05/07 02:01:47;;;;;;;;;;;13.80;93.30;;;;;;5055488;28;20324;-89
2022/05/07 02:04:13;;;;;;;;;;;13.90;93.30;;;;;;5055654;28;20287;-89
2022/05/07 02:06:38;;;;;;;;;;;13.80;93.30;;;;;;5055614;28;20009;-88
2022/05/07 02:09:04;;;;;;;;;;;13.90;93.30;;;;;;5055546;28;20453;-88
2022/05/07 02:11:29;;;;;;;;;;;13.80;93.30;;;;;;5055493;28;20480;-89
2022/05/07 02:13:55;;;;;;;;;;;13.80;93.30;;;;;;5055427;28;19951;-88
2022/05/07 02:16:20;;;;;;;;;;;13.80;93.20;;;;;;5055189;28;19988;-89
2022/05/07 02:18:46;;;;;;;;;;;13.80;93.20;;;;;;5055313;28;19974;-88
2022/05/07 02:21:11;;;;;;;;;;;13.80;93.20;;;;;;5055843;28;19962;-88
2022/05/07 02:23:37;;;;;;;;;;;13.60;93.20;;;;;;5055263;28;20414;-89
2022/05/07 02:26:03;;;;;;;;;;;13.60;93.50;;;;;;5055260;28;20021;-88
2022/05/07 02:28:28;;;;;;;;;;;13.70;93.80;;;;;;5055137;28;19957;-88
2022/05/07 02:30:54;;;;;;;;;;;13.60;93.90;;;;;;5055052;28;19962;-88
2022/05/07 02:33:19;;;;;;;;;;;13.60;94.00;;;;;;5054790;28;20482;-88
2022/05/07 02:35:45;;;;;;;;;;;13.70;94.10;;;;;;5055008;28;20404;-88
2022/05/07 02:38:10;;;;;;;;;;;13.70;94.10;;;;;;5054905;28;20428;-88
2022/05/07 02:43:20;;;;;;;;;;;13.70;93.90;;;;;;5054892;28;20352;-88
2022/05/07 02:45:46;;;;;;;;;;;13.70;93.90;;;;;;5054852;28;19950;-88
2022/05/07 02:48:11;;;;;;;;;;;13.70;93.80;;;;;;5054480;28;19950;-89
2022/05/07 02:50:37;;;;;;;;;;;13.70;93.80;;;;;;5054778;28;20297;-89
2022/05/07 02:53:02;;;;;;;;;;;13.80;93.80;;;;;;5054681;28;20046;-89
2022/05/07 02:55:28;;;;;;;;;;;13.70;93.70;;;;;;5054688;28;20090;-88
2022/05/07 02:57:53;;;;;;;;;;;13.70;93.60;;;;;;5054508;28;19954;-88
2022/05/07 03:00:19;;;;;;;;;;;13.70;93.70;;;;;;5054284;28;19987;-88
2022/05/07 03:02:45;;;;;;;;;;;13.70;93.80;;;;;;5054495;28;20050;-87
2022/05/07 03:05:10;;;;;;;;;;;13.70;94.00;;;;;;5054450;28;19964;-88
2022/05/07 03:07:36;;;;;;;;;;;13.70;94.00;;;;;;5054406;28;20002;-88
2022/05/07 03:10:02;;;;;;;;;;;13.70;94.00;;;;;;5054594;28;20318;-88
2022/05/07 03:12:28;;;;;;;;;;;13.70;93.90;;;;;;5054257;28;19946;-88
2022/05/07 03:14:54;;;;;;;;;;;13.70;93.80;;;;;;5054296;28;19955;-88
2022/05/07 03:17:20;;;;;;;;;;;13.70;93.80;;;;;;5054061;28;19991;-88
2022/05/07 03:19:45;;;;;;;;;;;13.70;93.80;;;;;;5054094;28;20008;-88
2022/05/07 03:22:11;;;;;;;;;;;13.70;93.90;;;;;;5054162;28;19955;-88
2022/05/07 03:24:40;;;;;;;;;;;13.70;94.00;;;;;;5054138;28;20328;-88
2022/05/07 03:27:06;;;;;;;;;;;13.70;94.00;;;;;;5054310;28;19958;-88
2022/05/07 03:29:31;;;;;;;;;;;13.70;94.00;;;;;;5054247;28;20327;-88
2022/05/07 03:31:57;;;;;;;;;;;13.60;94.10;;;;;;5035777;28;20002;-88
2022/05/07 03:34:22;;;;;;;;;;;13.60;94.10;;;;;;5053832;28;19944;-88
2022/05/07 03:36:48;;;;;;;;;;;13.60;94.20;;;;;;5053856;28;19954;-88
2022/05/07 03:39:14;;;;;;;;;;;13.60;94.30;;;;;;5053745;28;19979;-88
2022/05/07 03:41:40;;;;;;;;;;;13.60;94.40;;;;;;5053778;28;20354;-88
2022/05/07 03:44:05;;;;;;;;;;;13.60;94.40;;;;;;5053943;28;19950;-88
2022/05/07 03:46:31;;;;;;;;;;;13.60;94.30;;;;;;5053679;28;20041;-88
2022/05/07 03:48:56;;;;;;;;;;;13.60;94.30;;;;;;5053685;28;20332;-88
2022/05/07 03:51:22;;;;;;;;;;;13.60;94.40;;;;;;5053223;28;19955;-87
2022/05/07 03:53:47;;;;;;;;;;;13.60;94.40;;;;;;5053652;28;19965;-87
2022/05/07 03:56:13;;;;;;;;;;;13.60;94.50;;;;;;5053469;28;20329;-88
2022/05/07 03:58:39;;;;;;;;;;;13.50;94.50;;;;;;5053363;28;19974;-88
2022/05/07 04:01:04;;;;;;;;;;;13.50;94.60;;;;;;5052343;28;19953;-88
2022/05/07 04:03:30;;;;;;;;;;;13.60;94.60;;;;;;5053640;28;20318;-88
2022/05/07 04:05:56;;;;;;;;;;;13.60;94.60;;;;;;5053265;28;19977;-87
2022/05/07 04:08:23;;;;;;;;;;;13.50;94.60;;;;;;5053218;28;19958;-87
2022/05/07 04:10:48;;;;;;;;;;;13.40;94.70;;;;;;5053056;28;19966;-88
2022/05/07 04:13:17;;;;;;;;;;;13.50;94.80;;;;;;5053530;28;19978;-88
2022/05/07 04:15:46;;;;;;;;;;;13.50;94.80;;;;;;5053192;28;19951;-87
2022/05/07 04:18:12;;;;;;;;;;;13.50;94.80;;;;;;5079441;23;20026;-87
2022/05/07 04:20:38;;;;;;;;;;;13.40;94.90;;;;;;5073279;28;20097;-88
2022/05/07 04:23:05;;;;;;;;;;;13.40;95.00;;;;;;5072660;28;20526;-88
2022/05/07 04:25:31;;;;;;;;;;;13.40;95.00;;;;;;5073161;28;19955;-88
2022/05/07 04:27:56;;;;;;;;;;;13.40;95.00;;;;;;5073216;28;19967;-88
2022/05/07 04:30:22;;;;;;;;;;;13.50;95.00;;;;;;5072795;28;20323;-88
2022/05/07 04:32:48;;;;;;;;;;;13.40;95.00;;;;;;5073094;28;20070;-88
2022/05/07 04:35:14;;;;;;;;;;;13.50;95.00;;;;;;5073007;28;20399;-88
2022/05/07 04:37:39;;;;;;;;;;;13.50;95.00;;;;;;5072839;28;20040;-87
2022/05/07 04:40:05;;;;;;;;;;;13.50;95.00;;;;;;5072761;28;19979;-88
2022/05/07 04:42:31;;;;;;;;;;;13.50;94.90;;;;;;5072940;28;19950;-88
2022/05/07 04:44:56;;;;;;;;;;;13.50;95.00;;;;;;5072922;28;20016;-88
2022/05/07 04:47:22;;;;;;;;;;;13.50;95.00;;;;;;5072934;28;19998;-88
2022/05/07 04:49:48;;;;;;;;;;;13.50;95.10;;;;;;5072858;28;20041;-88
2022/05/07 04:52:13;;;;;;;;;;;13.50;95.00;;;;;;5073135;28;19952;-87
2022/05/07 04:54:39;;;;;;;;;;;13.50;95.00;;;;;;5073455;28;20347;-88
2022/05/07 04:57:04;;;;;;;;;;;13.60;95.00;;;;;;5073150;28;20407;-88
2022/05/07 04:59:30;;;;;;;;;;;13.60;95.00;;;;;;5072773;28;20447;-88
2022/05/07 05:01:56;;;;;;;;;;;13.60;95.00;;;;;;5069436;28;19954;-88
2022/05/07 05:04:21;;;;;;;;;;;13.50;95.00;;;;;;5072082;28;19958;-88
2022/05/07 05:06:47;;;;;;;;;;;13.60;95.00;;;;;;5072141;28;20438;-88
2022/05/07 05:09:13;;;;;;;;;;;13.60;95.00;;;;;;5071529;28;20074;-88
2022/05/07 05:11:39;;;;;;;;;;;13.60;95.00;;;;;;5073583;28;19956;-88
2022/05/07 05:16:49;;;;;;;;;;;13.70;94.90;;;;;;5076218;28;19992;-88
2022/05/07 05:19:15;;;;;;;;;;;13.70;94.90;;;;;;5076016;28;19976;-88
2022/05/07 05:21:41;;;;;;;;;;;13.70;94.80;;;;;;5076147;28;19965;-87
2022/05/07 05:24:07;;;;;;;;;;;13.70;94.80;;;;;;5062793;28;19957;-88
2022/05/07 05:26:32;;;;;;;;;;;13.70;94.80;;;;;;5069610;28;19958;-88
2022/05/07 05:28:58;;;;;;;;;;;13.70;94.70;;;;;;5075923;28;20005;-88
2022/05/07 05:31:24;;;;;;;;;;;13.80;94.70;;;;;;5075474;28;19959;-87
2022/05/07 05:33:49;;;;;;;;;;;13.70;94.60;;;;;;5076039;28;19951;-87
2022/05/07 05:36:15;;;;;;;;;;;13.80;94.60;;;;;;5073672;28;19963;-87
2022/05/07 05:38:40;;;;;;;;;;;13.80;94.60;;;;;;5074851;28;19968;-87
2022/05/07 05:41:06;;;;;;;;;;;13.80;94.50;;;;;;5075227;28;19986;-87
2022/05/07 05:43:31;;;;;;;;;;;13.80;94.50;;;;;;5074911;28;19983;-88
2022/05/07 05:45:57;;;;;;;;;;;13.80;94.50;;;;;;5073715;28;20437;-87
2022/05/07 05:48:24;;;;;;;;;;;13.80;94.40;;;;;;5072970;28;19954;-87
2022/05/07 05:50:49;;;;;;;;;;;13.80;94.40;;;;;;5074965;28;19985;-88
2022/05/07 05:53:15;;;;;;;;;;;13.80;94.30;;;;;;5071826;28;19987;-88
2022/05/07 05:55:40;;;;;;;;;;;13.80;94.30;;;;;;5075067;28;19948;-87
2022/05/07 05:58:06;;;;;;;;;;;13.90;94.20;;;;;;5074947;28;20022;-87
2022/05/07 06:00:32;;;;;;;;;;;13.90;94.10;;;;;;5075214;28;19963;-87
2022/05/07 06:02:57;;;;;;;;;;;13.90;94.00;;;;;;5074319;28;19946;-87
2022/05/07 06:05:23;;;;;;;;;;;13.90;93.90;;;;;;5074400;28;19950;-87
2022/05/07 06:07:48;;;;;;;;;;;13.90;93.70;;;;;;5075542;28;19962;-87
2022/05/07 06:10:14;;;;;;;;;;;13.90;93.70;;;;;;5063932;28;19980;-87
2022/05/07 06:12:39;;;;;;;;;;;13.90;93.60;;;;;;5074434;28;19977;-87
2022/05/07 06:15:05;;;;;;;;;;;13.90;93.70;;;;;;5074919;28;19962;-87
2022/05/07 06:17:31;;;;;;;;;;;14.00;93.70;;;;;;5071377;28;20229;-87
2022/05/07 06:19:56;;;;;;;;;;;14.00;93.50;;;;;;5075555;28;19997;-87
2022/05/07 06:22:22;;;;;;;;;;;14.00;93.10;;;;;;5075013;28;19953;-87
2022/05/07 06:27:32;;;;;;;;;;;14.00;92.50;;;;;;5074541;28;20174;-87
2022/05/07 06:29:58;;;;;;;;;;;14.00;92.40;;;;;;5074420;28;20132;-87
2022/05/07 06:32:29;;;;;;;;;;;14.00;92.30;;;;;;5073740;28;20123;-87
2022/05/07 06:34:55;;;;;;;;;;;14.00;92.30;;;;;;5067970;28;20405;-87
2022/05/07 06:37:20;;;;;;;;;;;14.10;92.30;;;;;;5072424;28;19966;-87
2022/05/07 06:39:46;;;;;;;;;;;14.10;92.40;;;;;;5072223;28;19972;-87
2022/05/07 06:42:11;;;;;;;;;;;14.10;92.50;;;;;;5074660;28;19957;-87
2022/05/07 06:44:37;;;;;;;;;;;14.20;92.50;;;;;;5073941;28;19955;-87
2022/05/07 06:47:03;;;;;;;;;;;14.20;92.70;;;;;;5074261;28;19954;-87
2022/05/07 06:49:28;;;;;;;;;;;14.30;92.80;;;;;;5073765;28;20020;-87
2022/05/07 06:51:54;;;;;;;;;;;14.20;92.80;;;;;;5073710;28;20039;-87
2022/05/07 06:54:20;;;;;;;;;;;14.20;92.80;;;;;;5074235;28;19987;-88
2022/05/07 06:56:47;;;;;;;;;;;14.30;93.00;;;;;;5073445;28;19997;-87
2022/05/07 06:59:12;;;;;;;;;;;14.30;93.10;;;;;;5074264;28;19973;-87
2022/05/07 07:01:38;;;;;;;;;;;14.30;93.10;;;;;;5073658;28;19952;-87
2022/05/07 07:04:04;;;;;;;;;;;14.40;93.10;;;;;;5073666;28;19965;-87
2022/05/07 07:06:29;;;;;;;;;;;14.40;92.90;;;;;;5074508;28;19958;-87
2022/05/07 07:08:56;;;;;;;;;;;14.40;92.70;;;;;;5073844;28;20493;-87
2022/05/07 07:11:22;;;;;;;;;;;14.40;92.50;;;;;;5074051;28;20005;-87
2022/05/07 07:13:48;;;;;;;;;;;14.40;92.10;;;;;;5073059;28;19990;-88
2022/05/07 07:16:13;;;;;;;;;;;14.40;92.10;;;;;;5073204;28;19991;-88
2022/05/07 07:18:39;;;;;;;;;;;14.50;92.10;;;;;;5073391;28;19968;-87
2022/05/07 07:21:05;;;;;;;;;;;14.50;92.10;;;;;;5072316;28;20459;-87
2022/05/07 07:23:30;;;;;;;;;;;14.50;91.80;;;;;;5073182;28;19957;-88
2022/05/07 07:25:57;;;;;;;;;;;14.50;91.90;;;;;;5073417;28;20406;-87
2022/05/07 07:28:23;;;;;;;;;;;14.60;92.30;;;;;;5074123;28;20013;-87
2022/05/07 07:30:49;;;;;;;;;;;14.70;91.70;;;;;;5073550;28;19992;-88
2022/05/07 07:33:14;;;;;;;;;;;14.70;91.40;;;;;;5073696;28;19965;-87
2022/05/07 07:35:40;;;;;;;;;;;14.80;91.30;;;;;;5072553;28;19957;-87
2022/05/07 07:38:06;;;;;;;;;;;14.90;91.10;;;;;;5073805;28;19964;-88
2022/05/07 07:40:31;;;;;;;;;;;14.90;91.00;;;;;;5073239;28;19982;-88
2022/05/07 07:42:57;;;;;;;;;;;15.00;90.90;;;;;;5073733;28;19953;-88
2022/05/07 07:48:08;;;;;;;;;;;15.00;91.10;;;;;;5073239;28;19965;-88
2022/05/07 07:50:34;;;;;;;;;;;15.10;91.10;;;;;;5073120;28;20019;-87
2022/05/07 07:53:01;;;;;;;;;;;15.10;91.20;;;;;;5058356;28;19960;-88
2022/05/07 07:55:26;;;;;;;;;;;15.10;91.30;;;;;;5057265;28;20410;-88
2022/05/07 07:57:53;;;;;;;;;;;15.20;91.30;;;;;;5072956;28;20008;-88
2022/05/07 08:00:18;;;;;;;;;;;15.30;91.30;;;;;;5073197;28;19943;-88
2022/05/07 08:02:50;;;;;;;;;;;15.30;91.30;;;;;;5073427;28;20401;-88
2022/05/07 08:05:17;;;;;;;;;;;15.40;91.30;;;;;;5073294;28;19952;-88
2022/05/07 08:13:11;;;;;;;;;;;15.50;90.60;;;;;;5073610;28;19965;-88
2022/05/07 08:15:38;;;;;;;;;;;15.60;90.70;;;;;;5073026;28;19958;-88
2022/05/07 08:18:05;;;;;;;;;;;15.70;90.60;;;;;;5072982;28;19993;-88
2022/05/07 08:20:31;;;;;;;;;;;15.70;90.50;;;;;;5093535;22;19996;-96
2022/05/07 08:22:57;;;;;;;;;;;15.80;90.30;;;;;;5090025;28;19962;-96
2022/05/07 08:25:22;;;;;;;;;;;15.80;90.10;;;;;;5072762;28;19972;-96
2022/05/07 08:27:48;;;;;;;;;;;15.90;89.80;;;;;;5089953;28;19957;-96
2022/05/07 08:30:14;;;;;;;;;;;16.00;89.70;;;;;;5093994;28;20063;-96
2022/05/07 08:32:40;;;;;;;;;;;16.10;89.40;;;;;;5071346;28;20122;-96
2022/05/07 08:35:06;;;;;;;;;;;16.10;88.90;;;;;;5074603;28;19961;-96
2022/05/07 08:37:32;;;;;;;;;;;16.20;88.70;;;;;;5091146;28;19957;-96
2022/05/07 08:40:01;;;;;;;;;;;16.30;88.50;;;;;;5070964;28;19967;-96
2022/05/07 08:42:29;;;;;;;;;;;16.40;88.10;;;;;;5076138;28;19965;-96
2022/05/07 08:44:57;;;;;;;;;;;16.40;88.00;;;;;;5076591;28;19956;-96
2022/05/07 08:47:26;;;;;;;;;;;16.60;88.10;;;;;;5079396;28;20016;-96
2022/05/07 08:49:55;;;;;;;;;;;16.70;87.90;;;;;;5038322;22;20006;-91
2022/05/07 08:52:22;;;;;;;;;;;16.80;86.80;;;;;;5017221;28;19964;-90
2022/05/07 08:54:47;;;;;;;;;;;16.90;86.30;;;;;;5017385;28;19955;-91
2022/05/07 08:57:13;;;;;;;;;;;16.90;85.40;;;;;;5015235;28;19958;-91
2022/05/07 08:59:39;;;;;;;;;;;16.90;85.50;;;;;;5016977;28;19968;-91
2022/05/07 09:02:06;;;;;;;;;;;17.00;85.30;;;;;;5017292;28;19959;-91
2022/05/07 09:04:31;;;;;;;;;;;17.10;85.30;;;;;;5017329;28;19956;-91
2022/05/07 09:06:57;;;;;;;;;;;17.10;85.10;;;;;;5016588;28;20418;-91
2022/05/07 09:09:23;;;;;;;;;;;17.30;84.60;;;;;;5017102;28;19987;-91
2022/05/07 09:11:48;;;;;;;;;;;17.30;84.80;;;;;;5011332;28;19964;-91
2022/05/07 09:14:18;;;;;;;;;;;17.40;83.90;;;;;;5008777;28;19964;-91
2022/05/07 09:16:50;;;;;;;;;;;17.50;83.50;;;;;;5016963;28;20042;-91
2022/05/07 09:19:27;;;;;;;;;;;17.60;82.70;;;;;;5004702;28;20021;-91
2022/05/07 09:22:09;;;;;;;;;;;17.70;82.90;;;;;;4997198;28;19971;-91
2022/05/07 09:24:35;;;;;;;;;;;17.80;83.00;;;;;;5015666;28;19991;-91
2022/05/07 09:27:03;;;;;;;;;;;18.00;82.40;;;;;;5016829;28;19939;-91
2022/05/07 09:29:29;;;;;;;;;;;18.00;82.40;;;;;;5016522;28;19982;-91
2022/05/07 09:31:55;;;;;;;;;;;18.20;81.60;;;;;;5017076;28;19950;-91
2022/05/07 09:37:16;;;;;;;;;;;18.20;80.80;;;;;;5015707;28;19973;-91
2022/05/07 09:39:45;;;;;;;;;;;18.30;80.60;;;;;;5011447;28;20033;-91
2022/05/07 09:42:11;;;;;;;;;;;18.40;80.40;;;;;;5016061;28;19967;-91
2022/05/07 09:44:36;;;;;;;;;;;18.40;81.50;;;;;;5015977;28;20005;-91
2022/05/07 09:47:03;;;;;;;;;;;18.60;80.40;;;;;;5016321;28;19933;-91
2022/05/07 09:49:29;;;;;;;;;;;18.80;78.50;;;;;;5042250;28;19986;-91
2022/05/07 09:51:55;;;;;;;;;;;18.90;78.40;;;;;;5047580;28;20457;-91
2022/05/07 09:59:51;;;;;;;;;;;19.10;74.00;;;;;;5024299;28;20423;-91
2022/05/07 10:02:22;;;;;;;;;;;19.00;75.70;;;;;;5042428;28;19927;-91
2022/05/07 10:04:48;;;;;;;;;;;19.20;75.30;;;;;;5056110;28;19953;-91
2022/05/07 10:07:19;;;;;;;;;;;19.30;75.80;;;;;;5055684;28;19967;-91
2022/05/07 10:10:03;;;;;;;;;;;19.40;74.60;;;;;;5049323;28;19944;-92
2022/05/07 10:12:29;;;;;;;;;;;19.40;73.90;;;;;;5035897;28;20028;-91
2022/05/07 10:15:08;;;;;;;;;;;19.50;75.20;;;;;;5039895;28;19956;-91
2022/05/07 10:17:35;;;;;;;;;;;19.50;74.10;;;;;;5026297;28;19941;-91
2022/05/07 10:20:09;;;;;;;;;;;19.60;73.30;;;;;;5036026;28;20325;-91
2022/05/07 10:22:36;;;;;;;;;;;19.70;72.70;;;;;;5016141;28;19962;-91
2022/05/07 10:25:05;;;;;;;;;;;19.70;73.10;;;;;;5015853;28;19925;-91
2022/05/07 10:27:32;;;;;;;;;;;19.60;72.50;;;;;;5042032;28;19967;-91
2022/05/07 10:30:06;;;;;;;;;;;19.40;74.80;;;;;;5053955;28;19956;-92
2022/05/07 10:32:51;;;;;;;;;;;19.30;74.80;;;;;;5044684;28;19937;-91
2022/05/07 10:35:37;;;;;;;;;;;19.30;75.80;;;;;;5035350;28;20390;-91
2022/05/07 10:38:09;;;;;;;;;;;19.20;74.80;;;;;;5035420;28;19937;-91
2022/05/07 10:40:35;;;;;;;;;;;18.80;75.00;;;;;;5039152;28;19955;-91
2022/05/07 10:43:00;;;;;;;;;;;18.90;75.70;;;;;;5035252;28;20393;-91
2022/05/07 10:45:29;;;;;;;;;;;19.20;75.00;;;;;;5035165;28;19921;-91
2022/05/07 10:47:55;;;;;;;;;;;19.30;75.70;;;;;;5039924;28;19980;-92
2022/05/07 10:50:23;;;;;;;;;;;19.50;75.20;;;;;;5054566;28;19985;-91
2022/05/07 10:52:56;;;;;;;;;;;19.70;73.40;;;;;;5054435;28;19966;-91
2022/05/07 10:55:26;;;;;;;;;;;19.80;71.80;;;;;;5055013;28;19957;-91
2022/05/07 10:57:52;;;;;;;;;;;19.80;71.70;;;;;;5054111;28;19943;-91
2022/05/07 11:00:19;;;;;;;;;;;19.90;73.00;;;;;;5054901;28;19981;-91
2022/05/07 11:02:45;;;;;;;;;;;19.80;72.00;;;;;;5038700;28;19989;-91
2022/05/07 11:05:14;;;;;;;;;;;20.00;70.80;;;;;;5038337;28;19983;-91
2022/05/07 11:07:40;;;;;;;;;;;20.10;70.00;;;;;;5040616;28;19916;-91
2022/05/07 11:10:06;;;;;;;;;;;20.20;71.00;;;;;;5046396;28;19924;-91
2022/05/07 11:12:32;;;;;;;;;;;20.20;69.70;;;;;;5049828;28;19996;-91
2022/05/07 11:14:58;;;;;;;;;;;20.10;70.40;;;;;;5054438;28;19940;-91
2022/05/07 11:17:29;;;;;;;;;;;20.00;70.10;;;;;;5036030;28;19932;-91
2022/05/07 11:19:54;;;;;;;;;;;20.00;70.00;;;;;;5034907;28;20019;-91
2022/05/07 11:22:23;;;;;;;;;;;19.90;70.40;;;;;;5034457;28;20396;-91
2022/05/07 11:24:55;;;;;;;;;;;19.90;70.70;;;;;;5043418;28;19969;-91
2022/05/07 11:27:20;;;;;;;;;;;20.00;71.20;;;;;;5044878;28;19928;-92
2022/05/07 11:29:46;;;;;;;;;;;20.00;70.40;;;;;;5037586;28;20041;-91
2022/05/07 11:32:12;;;;;;;;;;;20.00;70.20;;;;;;5032894;28;19910;-91
2022/05/07 11:34:38;;;;;;;;;;;20.00;70.80;;;;;;5035931;28;19909;-92
2022/05/07 11:37:13;;;;;;;;;;;20.00;70.80;;;;;;5045019;28;19972;-92
2022/05/07 11:39:48;;;;;;;;;;;20.10;70.80;;;;;;5054188;28;19909;-91
2022/05/07 11:42:26;;;;;;;;;;;20.30;71.10;;;;;;5054041;28;20005;-91
2022/05/07 11:47:36;;;;;;;;;;;20.30;71.40;;;;;;5054351;28;19948;-91
2022/05/07 11:50:06;;;;;;;;;;;20.50;71.20;;;;;;5053679;28;19969;-91
2022/05/07 11:52:31;;;;;;;;;;;20.50;71.60;;;;;;5054235;28;19915;-91
2022/05/07 11:55:02;;;;;;;;;;;20.60;70.40;;;;;;5053892;28;19919;-91
2022/05/07 11:57:28;;;;;;;;;;;20.70;71.20;;;;;;5053921;28;19927;-91
2022/05/07 11:59:54;;;;;;;;;;;20.70;72.40;;;;;;5053725;28;20358;-91
2022/05/07 12:02:19;;;;;;;;;;;20.70;70.10;;;;;;5053723;28;19928;-91
2022/05/07 12:04:46;;;;;;;;;;;20.60;70.40;;;;;;5053695;28;20366;-91
2022/05/07 12:07:12;;;;;;;;;;;20.60;72.00;;;;;;5051804;28;19959;-91
2022/05/07 12:09:37;;;;;;;;;;;20.80;70.70;;;;;;5054124;28;19919;-91
2022/05/07 12:12:03;;;;;;;;;;;21.00;70.10;;;;;;5053615;28;20359;-91
2022/05/07 12:14:29;;;;;;;;;;;21.10;68.00;;;;;;5053575;28;19909;-91
2022/05/07 12:19:39;;;;;;;;;;;21.40;65.80;;;;;;5053472;28;19948;-91
2022/05/07 12:30:18;;;;;;;;;;;21.70;63.60;;;;;;5053313;28;20002;-91
2022/05/07 12:32:45;;;;;;;;;;;21.60;64.30;;;;;;5053194;28;19949;-91
2022/05/07 12:35:11;;;;;;;;;;;21.50;65.50;;;;;;5053324;28;19908;-92
2022/05/07 12:37:37;;;;;;;;;;;21.30;67.70;;;;;;5053018;28;19916;-92
2022/05/07 12:40:03;;;;;;;;;;;21.40;65.10;;;;;;5053362;28;19960;-92
2022/05/07 12:42:29;;;;;;;;;;;21.60;64.50;;;;;;5051991;28;20427;-91
2022/05/07 12:44:55;;;;;;;;;;;21.70;64.20;;;;;;5053210;28;19909;-91
2022/05/07 12:47:20;;;;;;;;;;;21.60;64.60;;;;;;5053251;28;19920;-91
2022/05/07 12:49:46;;;;;;;;;;;21.60;64.50;;;;;;5053000;28;19921;-91
2022/05/07 12:52:13;;;;;;;;;;;21.60;64.30;;;;;;5053238;28;19979;-91
2022/05/07 12:54:39;;;;;;;;;;;21.70;62.70;;;;;;5053367;28;19909;-91
2022/05/07 12:57:04;;;;;;;;;;;21.80;62.20;;;;;;5052302;28;19989;-91
2022/05/07 12:59:30;;;;;;;;;;;22.00;62.10;;;;;;5053009;28;19916;-92
2022/05/07 13:01:57;;;;;;;;;;;22.10;59.90;;;;;;5053050;28;19946;-92
2022/05/07 13:04:24;;;;;;;;;;;22.20;59.60;;;;;;5051855;28;19958;-92
2022/05/07 13:06:53;;;;;;;;;;;22.50;59.70;;;;;;5053143;28;20003;-92
2022/05/07 13:09:18;;;;;;;;;;;22.80;58.20;;;;;;5053333;28;19965;-92
2022/05/07 13:11:44;;;;;;;;;;;22.90;57.70;;;;;;5053021;28;19908;-92
2022/05/07 13:14:10;;;;;;;;;;;22.90;57.90;;;;;;5051769;28;19916;-91
2022/05/07 13:16:36;;;;;;;;;;;22.80;58.00;;;;;;5052915;28;19908;-91
2022/05/07 13:19:01;;;;;;;;;;;22.80;59.80;;;;;;5052927;28;19916;-91
2022/05/07 13:21:27;;;;;;;;;;;22.90;60.20;;;;;;5052927;28;19932;-92
2022/05/07 13:23:52;;;;;;;;;;;22.90;59.80;;;;;;5052897;28;19955;-91
2022/05/07 13:26:18;;;;;;;;;;;22.80;59.00;;;;;;5052840;28;19909;-91
2022/05/07 13:28:43;;;;;;;;;;;22.80;59.20;;;;;;5051175;28;20370;-91
2022/05/07 13:31:09;;;;;;;;;;;22.30;59.80;;;;;;5051486;28;20277;-91
2022/05/07 13:33:35;;;;;;;;;;;22.00;62.40;;;;;;5055467;28;19909;-91
2022/05/07 13:36:00;;;;;;;;;;;21.70;62.50;;;;;;5056477;28;20393;-92
2022/05/07 13:38:26;;;;;;;;;;;21.50;62.60;;;;;;5051758;28;19914;-91
2022/05/07 13:40:51;;;;;;;;;;;21.40;62.30;;;;;;5036457;28;19909;-91
2022/05/07 13:43:17;;;;;;;;;;;21.20;63.60;;;;;;5036700;28;19955;-91
2022/05/07 13:45:42;;;;;;;;;;;21.50;64.70;;;;;;5036670;28;20052;-91
2022/05/07 13:48:08;;;;;;;;;;;21.80;60.30;;;;;;5037899;28;19965;-91
2022/05/07 13:50:34;;;;;;;;;;;22.10;59.80;;;;;;5056303;28;20390;-91
2022/05/07 13:53:00;;;;;;;;;;;22.40;59.10;;;;;;5056178;28;19909;-91
2022/05/07 13:55:25;;;;;;;;;;;22.70;60.30;;;;;;5056194;28;19946;-91
2022/05/07 13:57:51;;;;;;;;;;;22.80;61.20;;;;;;5044941;28;19945;-91
2022/05/07 14:00:17;;;;;;;;;;;22.90;58.10;;;;;;5056123;28;19948;-91
2022/05/07 14:02:43;;;;;;;;;;;23.00;56.90;;;;;;5056041;28;19917;-92
2022/05/07 14:05:09;;;;;;;;;;;23.30;56.00;;;;;;5056001;28;19963;-92
2022/05/07 14:07:34;;;;;;;;;;;23.50;55.70;;;;;;5055939;28;19974;-91
2022/05/07 14:10:00;;;;;;;;;;;23.60;56.40;;;;;;5055741;28;19959;-92
2022/05/07 14:12:26;;;;;;;;;;;23.20;55.30;;;;;;5055887;28;19955;-91
2022/05/07 14:14:51;;;;;;;;;;;23.30;57.00;;;;;;5055798;28;20006;-91
2022/05/07 14:17:17;;;;;;;;;;;23.30;57.80;;;;;;5055706;28;19916;-92
2022/05/07 14:19:43;;;;;;;;;;;23.00;59.00;;;;;;5055768;28;19995;-91
2022/05/07 14:22:08;;;;;;;;;;;23.00;57.80;;;;;;5055628;28;19916;-91
2022/05/07 14:24:34;;;;;;;;;;;23.00;58.10;;;;;;5055604;28;19915;-92
2022/05/07 14:27:00;;;;;;;;;;;23.50;58.00;;;;;;5055357;28;19913;-92
2022/05/07 14:29:26;;;;;;;;;;;23.90;55.90;;;;;;5055801;28;19928;-92
2022/05/07 14:31:52;;;;;;;;;;;24.30;53.60;;;;;;5055729;28;19963;-91
2022/05/07 14:34:18;;;;;;;;;;;24.60;52.60;;;;;;5055630;28;19917;-92
2022/05/07 14:36:44;;;;;;;;;;;24.80;51.10;;;;;;5055434;28;20385;-92
2022/05/07 14:39:10;;;;;;;;;;;24.60;52.10;;;;;;5055405;28;19932;-91
2022/05/07 14:41:36;;;;;;;;;;;24.20;53.80;;;;;;5055316;28;20366;-91
2022/05/07 14:44:02;;;;;;;;;;;24.00;56.00;;;;;;5054987;28;19930;-92
2022/05/07 14:46:27;;;;;;;;;;;23.90;54.30;;;;;;5055251;28;19909;-92
2022/05/07 14:48:53;;;;;;;;;;;23.60;55.10;;;;;;5055004;28;19932;-91
2022/05/07 14:51:18;;;;;;;;;;;23.20;54.50;;;;;;5055224;28;19915;-92
2022/05/07 14:53:44;;;;;;;;;;;22.90;54.70;;;;;;5055032;28;19909;-91
2022/05/07 14:56:10;;;;;;;;;;;22.70;56.10;;;;;;5055346;28;19909;-91
2022/05/07 14:58:36;;;;;;;;;;;22.50;57.40;;;;;;5054884;28;20254;-92